Time;durP1;ratioP1;P1;durP2;ratioP2;P2;SDS_P1;SDS_P2;PMS_P1;PMS_P2;Temp;Humidity;BMP_temperature;BMP_pressure;BME280_temperature;BME280_humidity;BME280_pressure;Samples;Min_cycle;Max_cycle;Signal;HPM_P1;HPM_P2
2023/07/18 00:00:27;;;;;;;4.93;3.33;;;18.00;99.90;;;;;;5035977;28;20033;-55
2023/07/18 00:03:15;;;;;;;4.63;3.45;;;18.00;99.90;;;;;;5034424;28;20034;-56
2023/07/18 00:06:01;;;;;;;5.25;3.17;;;18.00;99.90;;;;;;5035571;28;20041;-52
2023/07/18 00:08:47;;;;;;;5.53;3.35;;;18.00;99.90;;;;;;5035660;28;20508;-51
2023/07/18 00:11:33;;;;;;;4.88;3.20;;;18.00;99.90;;;;;;5034144;28;20030;-55
2023/07/18 00:14:19;;;;;;;3.50;3.00;;;17.90;99.90;;;;;;5039089;28;20032;-54
2023/07/18 00:17:05;;;;;;;5.55;2.97;;;17.90;99.90;;;;;;5035656;28;20044;-54
2023/07/18 00:19:52;;;;;;;4.70;3.13;;;17.90;99.90;;;;;;5034521;28;20037;-54
2023/07/18 00:22:41;;;;;;;5.32;3.03;;;17.80;99.90;;;;;;5034649;28;20045;-51
2023/07/18 00:25:27;;;;;;;5.35;3.20;;;17.80;99.90;;;;;;5035086;28;20040;-51
2023/07/18 00:28:13;;;;;;;4.47;3.28;;;17.70;99.90;;;;;;5033253;28;20120;-53
2023/07/18 00:30:59;;;;;;;4.10;3.22;;;17.60;99.90;;;;;;5033830;28;20038;-52
2023/07/18 00:33:45;;;;;;;3.92;2.63;;;17.60;99.90;;;;;;5033466;28;20029;-55
2023/07/18 00:36:31;;;;;;;5.57;3.17;;;17.50;99.90;;;;;;5033412;28;20395;-55
2023/07/18 00:39:17;;;;;;;6.22;3.60;;;17.50;99.90;;;;;;5034690;28;20370;-53
2023/07/18 00:42:03;;;;;;;4.60;3.35;;;17.30;99.90;;;;;;5034939;28;20029;-54
2023/07/18 00:44:50;;;;;;;5.53;3.70;;;17.10;99.90;;;;;;5034136;28;20036;-56
2023/07/18 00:47:40;;;;;;;4.63;3.42;;;17.00;99.90;;;;;;5034686;28;20044;-54
2023/07/18 00:50:27;;;;;;;4.50;3.30;;;16.80;99.90;;;;;;5034774;28;20083;-55
2023/07/18 00:53:13;;;;;;;4.15;3.20;;;16.80;99.90;;;;;;5033525;28;20103;-55
2023/07/18 00:56:00;;;;;;;4.88;3.30;;;16.70;99.90;;;;;;5034474;28;20043;-56
2023/07/18 00:58:46;;;;;;;4.03;3.20;;;16.50;99.90;;;;;;5033203;28;20029;-54
2023/07/18 01:01:34;;;;;;;4.63;3.30;;;16.30;99.90;;;;;;5033739;28;20076;-54
2023/07/18 01:04:20;;;;;;;5.28;3.78;;;16.30;99.90;;;;;;5033336;28;20036;-53
2023/07/18 01:07:06;;;;;;;4.80;3.28;;;16.40;99.90;;;;;;5033071;28;20033;-54
2023/07/18 01:09:53;;;;;;;4.38;3.38;;;16.40;99.90;;;;;;5032850;28;20026;-54
2023/07/18 01:12:39;;;;;;;6.30;3.45;;;16.20;99.90;;;;;;5032203;28;20038;-53
2023/07/18 01:15:35;;;;;;;5.20;3.80;;;16.20;99.90;;;;;;5034158;28;20402;-51
2023/07/18 01:18:21;;;;;;;5.95;3.63;;;16.20;99.90;;;;;;5034819;28;20032;-51
2023/07/18 01:21:09;;;;;;;5.03;3.83;;;16.20;99.90;;;;;;5035280;28;20036;-51
2023/07/18 01:23:55;;;;;;;4.90;3.33;;;16.10;99.90;;;;;;5034182;28;20112;-52
2023/07/18 01:26:41;;;;;;;4.00;3.42;;;16.10;99.90;;;;;;5034088;28;20057;-57
2023/07/18 01:29:27;;;;;;;5.28;3.90;;;16.20;99.90;;;;;;5034168;28;20103;-57
2023/07/18 01:32:13;;;;;;;3.88;3.10;;;16.20;99.90;;;;;;5032933;28;20017;-54
2023/07/18 01:35:08;;;;;;;5.47;3.88;;;16.20;99.90;;;;;;5032839;28;20021;-55
2023/07/18 01:37:56;;;;;;;5.60;3.88;;;15.80;99.90;;;;;;5036125;28;20049;-54
2023/07/18 01:40:42;;;;;;;5.70;3.50;;;15.80;99.90;;;;;;5037892;28;20029;-54
2023/07/18 01:43:28;;;;;;;4.78;3.97;;;15.80;99.90;;;;;;5033786;28;20041;-57
2023/07/18 01:46:14;;;;;;;4.93;3.65;;;15.90;99.90;;;;;;5034041;28;20032;-57
2023/07/18 01:49:00;;;;;;;6.20;3.88;;;16.00;99.90;;;;;;5033792;28;20034;-57
2023/07/18 01:51:45;;;;;;;5.00;3.75;;;15.90;99.90;;;;;;5032631;28;20108;-57
2023/07/18 01:54:31;;;;;;;5.18;3.70;;;15.90;99.90;;;;;;5039460;28;20072;-57
2023/07/18 01:57:17;;;;;;;5.97;3.78;;;16.00;99.90;;;;;;5035161;28;20033;-53
2023/07/18 02:00:11;;;;;;;4.65;3.63;;;16.00;99.90;;;;;;5032222;28;20029;-57
2023/07/18 02:02:57;;;;;;;5.85;4.43;;;15.90;99.90;;;;;;5034074;28;20410;-54
2023/07/18 02:05:43;;;;;;;7.70;4.28;;;16.00;99.90;;;;;;5033426;28;20025;-52
2023/07/18 02:08:29;;;;;;;5.28;4.28;;;16.00;99.90;;;;;;5033616;28;20106;-54
2023/07/18 02:11:15;;;;;;;4.68;3.83;;;16.00;99.90;;;;;;5033673;28;20038;-54
2023/07/18 02:14:03;;;;;;;5.40;3.97;;;16.00;99.90;;;;;;5035682;28;20029;-54
2023/07/18 02:16:49;;;;;;;6.75;3.90;;;16.00;99.90;;;;;;5033205;28;20057;-54
2023/07/18 02:19:38;;;;;;;4.45;3.50;;;15.90;99.90;;;;;;5033099;28;20033;-53
2023/07/18 02:22:24;;;;;;;7.15;4.45;;;15.90;99.90;;;;;;5032073;28;20063;-52
2023/07/18 02:25:10;;;;;;;6.43;4.60;;;15.90;99.90;;;;;;5032385;28;20079;-55
2023/07/18 02:27:56;;;;;;;5.82;3.88;;;15.90;99.90;;;;;;5032840;28;20045;-52
2023/07/18 02:30:42;;;;;;;6.63;4.00;;;15.80;99.90;;;;;;5032060;28;20510;-53
2023/07/18 02:33:28;;;;;;;5.80;4.15;;;15.60;99.90;;;;;;5030926;28;20057;-55
2023/07/18 02:36:14;;;;;;;5.53;4.07;;;15.50;99.90;;;;;;5031840;28;20410;-56
2023/07/18 02:39:02;;;;;;;5.10;3.97;;;15.50;99.90;;;;;;5031651;28;20375;-53
2023/07/18 02:41:48;;;;;;;5.15;3.67;;;15.50;99.90;;;;;;5032344;28;20083;-53
2023/07/18 02:44:34;;;;;;;5.28;3.63;;;15.70;99.90;;;;;;5031099;28;20452;-54
2023/07/18 02:47:19;;;;;;;4.85;3.92;;;15.70;99.90;;;;;;5032598;28;20113;-54
2023/07/18 02:50:07;;;;;;;7.82;3.85;;;15.80;99.90;;;;;;5035020;28;20038;-56
2023/07/18 02:52:57;;;;;;;5.97;4.32;;;15.80;99.90;;;;;;5035330;28;20033;-55
2023/07/18 02:55:42;;;;;;;5.85;3.70;;;15.90;99.90;;;;;;5035629;28;20038;-52
2023/07/18 02:58:28;;;;;;;5.45;4.07;;;15.90;99.90;;;;;;5035685;28;20038;-55
2023/07/18 03:01:14;;;;;;;5.88;4.20;;;15.90;99.90;;;;;;5035892;28;20030;-51
2023/07/18 03:04:00;;;;;;;5.32;3.85;;;16.00;99.90;;;;;;5035549;28;20034;-51
2023/07/18 03:06:56;;;;;;;7.65;4.43;;;16.10;99.90;;;;;;5035711;28;20029;-52
2023/07/18 03:09:43;;;;;;;7.45;4.45;;;16.20;99.90;;;;;;5035220;28;20033;-51
2023/07/18 03:12:29;;;;;;;10.55;6.43;;;16.20;99.90;;;;;;5035710;28;20409;-54
2023/07/18 03:15:16;;;;;;;5.45;4.00;;;16.40;99.90;;;;;;5036229;28;20029;-52
2023/07/18 03:18:02;;;;;;;6.60;3.80;;;16.50;99.90;;;;;;5034702;28;20124;-52
2023/07/18 03:20:48;;;;;;;5.60;3.70;;;16.50;99.90;;;;;;5034402;28;20104;-52
2023/07/18 03:23:34;;;;;;;5.88;3.85;;;16.40;99.90;;;;;;5035196;28;20434;-52
2023/07/18 03:26:21;;;;;;;5.78;4.25;;;16.50;99.90;;;;;;5036056;28;20566;-52
2023/07/18 03:29:06;;;;;;;5.00;3.78;;;16.50;99.90;;;;;;5034290;28;20052;-55
2023/07/18 03:31:52;;;;;;;4.55;3.90;;;16.60;99.90;;;;;;5033871;28;20060;-52
2023/07/18 03:34:38;;;;;;;16.33;12.20;;;16.60;99.90;;;;;;5034638;28;20113;-52
2023/07/18 03:37:25;;;;;;;6.32;4.40;;;16.60;99.90;;;;;;5035230;28;20030;-51
2023/07/18 03:40:15;;;;;;;5.68;3.85;;;16.70;99.90;;;;;;5035229;28;20489;-55
2023/07/18 03:43:02;;;;;;;9.73;4.03;;;16.70;99.90;;;;;;5037578;28;20399;-51
2023/07/18 03:45:48;;;;;;;4.85;3.70;;;16.80;99.90;;;;;;5035921;28;20025;-55
2023/07/18 03:48:34;;;;;;;11.00;4.20;;;16.80;99.90;;;;;;5035565;28;20459;-55
2023/07/18 03:51:20;;;;;;;6.32;3.92;;;16.90;99.90;;;;;;5035587;28;20378;-55
2023/07/18 03:54:06;;;;;;;4.45;3.53;;;16.90;99.90;;;;;;5036274;28;20413;-52
2023/07/18 03:56:52;;;;;;;5.05;4.00;;;16.90;99.90;;;;;;5034464;28;20402;-53
2023/07/18 03:59:38;;;;;;;7.15;4.00;;;16.90;99.90;;;;;;5036120;28;20071;-55
2023/07/18 04:02:25;;;;;;;7.10;4.13;;;16.90;99.90;;;;;;5033321;28;20064;-54
2023/07/18 04:05:11;;;;;;;5.53;4.47;;;16.70;99.90;;;;;;5035602;28;20296;-55
2023/07/18 04:07:57;;;;;;;6.95;3.95;;;16.40;99.90;;;;;;5033408;28;20112;-50
2023/07/18 04:10:43;;;;;;;6.68;4.20;;;16.60;99.90;;;;;;5035723;28;20029;-53
2023/07/18 04:13:29;;;;;;;6.53;4.15;;;16.60;99.90;;;;;;5036819;28;20108;-53
2023/07/18 04:16:15;;;;;;;6.80;4.90;;;16.70;99.90;;;;;;5038067;28;20044;-57
2023/07/18 04:19:01;;;;;;;6.47;4.47;;;16.70;99.90;;;;;;5035097;28;20089;-56
2023/07/18 04:21:46;;;;;;;6.07;4.70;;;16.50;99.90;;;;;;5035855;28;20026;-57
2023/07/18 04:24:34;;;;;;;6.28;4.60;;;16.50;99.90;;;;;;5034283;28;20091;-57
2023/07/18 04:27:20;;;;;;;7.10;4.32;;;16.30;99.90;;;;;;5035211;28;20409;-57
2023/07/18 04:30:07;;;;;;;5.95;4.13;;;16.20;99.90;;;;;;5033620;28;20032;-57
2023/07/18 04:32:53;;;;;;;8.13;5.30;;;16.10;99.90;;;;;;5034503;28;20108;-56
2023/07/18 04:35:39;;;;;;;5.25;4.60;;;16.10;99.90;;;;;;5035562;28;20022;-55
2023/07/18 04:38:25;;;;;;;7.43;4.63;;;15.90;99.90;;;;;;5035107;28;20025;-57
2023/07/18 04:41:11;;;;;;;6.65;4.85;;;16.00;99.90;;;;;;5033447;28;20041;-57
2023/07/18 04:43:57;;;;;;;5.60;4.45;;;15.80;99.90;;;;;;5035878;28;20033;-57
2023/07/18 04:46:43;;;;;;;8.93;4.97;;;15.80;99.90;;;;;;5034742;28;20033;-57
2023/07/18 04:49:29;;;;;;;7.35;4.53;;;15.90;99.90;;;;;;5034953;28;20082;-57
2023/07/18 04:52:15;;;;;;;7.65;5.25;;;16.00;99.90;;;;;;5033927;28;20098;-55
2023/07/18 04:55:01;;;;;;;10.98;4.75;;;16.00;99.90;;;;;;5035275;28;20017;-53
2023/07/18 04:57:47;;;;;;;8.07;4.85;;;16.10;99.90;;;;;;5034371;28;20021;-54
2023/07/18 05:00:34;;;;;;;5.35;4.47;;;16.10;99.90;;;;;;5032647;28;20080;-55
2023/07/18 05:03:20;;;;;;;6.47;4.60;;;16.20;99.90;;;;;;5034381;28;20114;-56
2023/07/18 05:06:06;;;;;;;6.18;4.50;;;16.30;99.90;;;;;;5034316;28;20343;-55
2023/07/18 05:08:53;;;;;;;6.85;4.68;;;16.50;99.90;;;;;;5033044;28;20053;-53
2023/07/18 05:11:39;;;;;;;6.55;4.63;;;16.70;99.90;;;;;;5032528;28;20065;-53
2023/07/18 05:14:25;;;;;;;7.45;5.15;;;16.90;99.90;;;;;;5033093;28;20032;-54
2023/07/18 05:17:11;;;;;;;6.70;4.53;;;16.90;99.90;;;;;;5032752;28;20095;-54
2023/07/18 05:19:57;;;;;;;5.55;4.20;;;16.90;99.90;;;;;;5033438;28;20108;-56
2023/07/18 05:22:44;;;;;;;7.07;4.65;;;17.00;99.90;;;;;;5034720;28;20402;-54
2023/07/18 05:25:30;;;;;;;9.40;5.03;;;16.80;99.90;;;;;;5034778;28;20033;-55
2023/07/18 05:28:16;;;;;;;7.35;4.82;;;16.90;99.90;;;;;;5033996;28;20041;-55
2023/07/18 05:31:08;;;;;;;12.43;5.25;;;17.00;99.90;;;;;;5033117;28;20493;-51
2023/07/18 05:33:54;;;;;;;9.55;4.78;;;17.10;99.90;;;;;;5033333;28;20025;-54
2023/07/18 05:36:40;;;;;;;7.07;4.40;;;17.20;99.90;;;;;;5032586;28;20029;-55
2023/07/18 05:39:27;;;;;;;6.90;4.60;;;17.20;99.90;;;;;;5035122;28;20022;-54
2023/07/18 05:42:13;;;;;;;9.73;5.13;;;17.20;99.90;;;;;;5036008;28;20315;-51
2023/07/18 05:44:59;;;;;;;10.13;4.78;;;17.30;99.90;;;;;;5034078;28;20025;-52
2023/07/18 05:47:45;;;;;;;6.63;4.88;;;17.40;99.90;;;;;;5032367;28;20030;-56
2023/07/18 05:50:31;;;;;;;6.97;4.15;;;17.30;99.90;;;;;;5031674;28;20072;-53
2023/07/18 05:53:17;;;;;;;10.40;4.72;;;17.30;99.90;;;;;;5031264;28;20037;-54
2023/07/18 05:56:03;;;;;;;6.95;4.80;;;17.30;99.90;;;;;;5032377;28;20026;-56
2023/07/18 05:58:49;;;;;;;6.95;4.60;;;17.20;99.90;;;;;;5033684;28;20024;-54
2023/07/18 06:01:35;;;;;;;7.15;4.50;;;17.30;99.90;;;;;;5032300;28;20027;-56
2023/07/18 06:04:21;;;;;;;6.88;4.30;;;17.30;99.90;;;;;;5033838;28;20439;-54
2023/07/18 06:07:07;;;;;;;8.93;5.03;;;17.40;99.90;;;;;;5033573;28;20034;-54
2023/07/18 06:09:53;;;;;;;8.73;4.78;;;17.40;99.90;;;;;;5031454;28;20397;-51
2023/07/18 06:12:39;;;;;;;9.15;4.88;;;17.50;99.90;;;;;;5033755;28;20029;-52
2023/07/18 06:15:25;;;;;;;14.43;5.55;;;17.70;99.90;;;;;;5034290;28;20402;-53
2023/07/18 06:18:11;;;;;;;7.05;4.40;;;17.80;99.90;;;;;;5032587;28;20028;-58
2023/07/18 06:20:57;;;;;;;9.35;4.35;;;17.90;99.90;;;;;;5033406;28;20030;-57
2023/07/18 06:23:43;;;;;;;11.48;4.90;;;18.00;99.90;;;;;;5033010;28;20026;-56
2023/07/18 06:26:29;;;;;;;9.88;4.70;;;18.00;99.90;;;;;;5032148;28;20517;-55
2023/07/18 06:29:17;;;;;;;7.05;4.65;;;18.20;99.90;;;;;;5032824;28;20160;-54
2023/07/18 06:32:05;;;;;;;10.40;4.93;;;18.20;99.90;;;;;;5032938;28;20030;-54
2023/07/18 06:34:51;;;;;;;7.63;4.90;;;18.30;99.90;;;;;;5033362;28;20030;-54
2023/07/18 06:37:37;;;;;;;8.35;5.03;;;18.30;99.90;;;;;;5032656;28;20059;-51
2023/07/18 06:40:23;;;;;;;9.70;4.93;;;18.40;99.90;;;;;;5032724;28;20113;-51
2023/07/18 06:43:09;;;;;;;7.15;5.00;;;18.50;99.60;;;;;;5031878;28;20045;-58
2023/07/18 06:45:54;;;;;;;8.88;5.03;;;18.50;99.30;;;;;;5032698;28;20025;-56
2023/07/18 06:48:41;;;;;;;7.43;4.32;;;18.60;99.40;;;;;;5031446;28;20045;-56
2023/07/18 06:51:27;;;;;;;9.27;4.65;;;18.60;99.10;;;;;;5031115;28;20119;-57
2023/07/18 06:54:13;;;;;;;9.40;5.00;;;18.60;99.00;;;;;;5031181;28;20026;-56
2023/07/18 06:57:00;;;;;;;6.35;4.68;;;18.50;99.50;;;;;;5032352;28;20111;-57
2023/07/18 06:59:46;;;;;;;11.98;5.13;;;18.50;99.30;;;;;;5032775;28;20473;-56
2023/07/18 07:02:33;;;;;;;8.52;4.35;;;18.70;98.70;;;;;;5031501;28;20059;-55
2023/07/18 07:05:19;;;;;;;9.18;4.57;;;18.70;98.30;;;;;;5032651;28;20038;-57
2023/07/18 07:08:09;;;;;;;9.27;4.72;;;18.60;98.30;;;;;;5031188;28;20124;-56
2023/07/18 07:11:08;;;;;;;7.95;4.50;;;18.70;98.30;;;;;;5033165;28;20504;-57
2023/07/18 07:13:54;;;;;;;10.95;5.28;;;18.90;97.90;;;;;;5031107;28;20033;-57
2023/07/18 07:16:40;;;;;;;7.15;4.45;;;18.90;96.90;;;;;;5030868;28;20030;-54
2023/07/18 07:19:26;;;;;;;13.77;5.68;;;18.80;96.70;;;;;;5031778;28;20022;-56
2023/07/18 07:22:14;;;;;;;6.72;4.57;;;19.10;96.70;;;;;;5031862;28;20117;-57
2023/07/18 07:25:00;;;;;;;9.80;4.75;;;19.10;96.70;;;;;;5033932;28;20029;-56
2023/07/18 07:27:47;;;;;;;9.43;4.88;;;19.10;96.20;;;;;;5032568;28;20120;-58
2023/07/18 07:30:33;;;;;;;9.93;5.10;;;19.10;95.70;;;;;;5032135;28;20034;-55
2023/07/18 07:33:19;;;;;;;8.00;4.35;;;19.20;95.80;;;;;;5031621;28;20069;-56
2023/07/18 07:36:05;;;;;;;11.52;5.30;;;19.20;96.10;;;;;;5032138;28;20030;-54
2023/07/18 07:38:51;;;;;;;11.23;5.07;;;19.40;95.70;;;;;;5034720;28;20029;-53
2023/07/18 07:41:37;;;;;;;6.68;4.47;;;19.40;95.80;;;;;;5039882;28;20137;-57
2023/07/18 07:44:23;;;;;;;9.93;5.00;;;19.50;95.40;;;;;;5037195;28;20112;-52
2023/07/18 07:47:09;;;;;;;7.35;4.53;;;19.60;94.60;;;;;;5036137;28;20021;-55
2023/07/18 07:49:55;;;;;;;7.55;4.90;;;19.80;94.50;;;;;;5036225;28;20026;-54
2023/07/18 07:52:41;;;;;;;12.02;4.65;;;19.80;94.10;;;;;;5034617;28;20029;-52
2023/07/18 07:55:28;;;;;;;9.00;5.00;;;19.80;94.40;;;;;;5035962;28;20037;-53
2023/07/18 07:58:14;;;;;;;12.63;5.40;;;19.80;94.10;;;;;;5034083;28;20525;-55
2023/07/18 08:01:01;;;;;;;10.15;4.50;;;19.70;93.80;;;;;;5040152;28;20026;-57
2023/07/18 08:03:47;;;;;;;13.52;4.85;;;19.90;93.70;;;;;;5036121;28;20113;-55
2023/07/18 08:06:33;;;;;;;6.65;4.18;;;19.90;92.80;;;;;;5033990;28;20044;-52
2023/07/18 08:09:20;;;;;;;14.07;4.88;;;20.10;92.50;;;;;;5034202;28;20033;-54
2023/07/18 08:12:06;;;;;;;9.40;4.28;;;20.20;92.40;;;;;;5034458;28;20048;-51
2023/07/18 08:14:53;;;;;;;5.47;3.92;;;20.40;91.80;;;;;;5036614;28;20028;-54
2023/07/18 08:17:39;;;;;;;5.95;4.18;;;20.40;91.20;;;;;;5036713;28;20460;-56
2023/07/18 08:20:25;;;;;;;6.03;4.45;;;20.40;91.30;;;;;;5033804;28;20124;-51
2023/07/18 08:23:11;;;;;;;7.03;4.28;;;20.60;91.10;;;;;;5035318;28;20128;-56
2023/07/18 08:25:57;;;;;;;6.07;3.70;;;20.60;90.70;;;;;;5035670;28;20498;-54
2023/07/18 08:28:43;;;;;;;8.95;4.80;;;20.70;90.20;;;;;;5035194;28;20491;-54
2023/07/18 08:31:29;;;;;;;6.75;4.00;;;20.50;90.10;;;;;;5035365;28;20056;-56
2023/07/18 08:34:16;;;;;;;7.13;4.03;;;20.60;90.30;;;;;;5035216;28;20033;-55
2023/07/18 08:37:08;;;;;;;7.97;4.20;;;20.70;89.80;;;;;;5034388;28;20026;-54
2023/07/18 08:39:54;;;;;;;8.73;4.80;;;20.80;88.70;;;;;;5035171;28;20029;-53
2023/07/18 08:42:40;;;;;;;10.13;3.97;;;20.80;88.50;;;;;;5035295;28;20462;-52
2023/07/18 08:45:30;;;;;;;6.47;4.15;;;20.80;88.60;;;;;;5034912;28;20044;-54
2023/07/18 08:48:16;;;;;;;7.97;3.92;;;21.00;88.10;;;;;;5034708;28;20040;-55
2023/07/18 08:51:03;;;;;;;5.75;3.88;;;21.10;86.40;;;;;;5035637;28;20041;-56
2023/07/18 08:53:48;;;;;;;8.85;3.75;;;21.30;84.20;;;;;;5035426;28;20057;-55
2023/07/18 08:56:34;;;;;;;9.98;4.30;;;21.30;84.00;;;;;;5034387;28;20030;-55
2023/07/18 08:59:20;;;;;;;6.20;3.70;;;21.30;84.00;;;;;;5032936;28;20037;-54
2023/07/18 09:02:08;;;;;;;6.63;4.05;;;21.40;83.80;;;;;;5035426;28;20025;-54
2023/07/18 09:04:54;;;;;;;7.05;3.67;;;21.50;82.90;;;;;;5034791;28;20030;-56
2023/07/18 09:07:40;;;;;;;7.30;3.72;;;21.90;82.10;;;;;;5033984;28;20041;-56
2023/07/18 09:10:26;;;;;;;6.22;3.83;;;22.00;81.20;;;;;;5034425;28;20044;-54
2023/07/18 09:13:12;;;;;;;5.10;3.30;;;21.80;80.40;;;;;;5035313;28;20030;-58
2023/07/18 09:15:58;;;;;;;9.57;5.30;;;21.90;79.70;;;;;;5035061;28;20456;-53
2023/07/18 09:18:49;;;;;;;7.47;3.65;;;22.00;78.50;;;;;;5035233;28;20049;-56
2023/07/18 09:21:36;;;;;;;8.23;3.63;;;21.90;79.10;;;;;;5034513;28;20524;-54
2023/07/18 09:24:35;;;;;;;7.32;4.13;;;22.00;79.60;;;;;;5034754;28;20034;-53
2023/07/18 09:27:21;;;;;;;6.68;3.97;;;21.90;79.30;;;;;;5033574;28;20038;-55
2023/07/18 09:30:08;;;;;;;10.75;3.85;;;21.90;78.10;;;;;;5034417;28;20033;-54
2023/07/18 09:32:54;;;;;;;6.18;3.45;;;22.00;78.00;;;;;;5034368;28;20025;-54
2023/07/18 09:35:40;;;;;;;8.00;3.85;;;22.10;77.30;;;;;;5034307;28;20041;-52
2023/07/18 09:38:27;;;;;;;5.15;3.25;;;22.20;77.30;;;;;;5034198;28;20041;-54
2023/07/18 09:41:16;;;;;;;7.28;3.75;;;22.40;77.40;;;;;;5034734;28;20048;-57
2023/07/18 09:44:03;;;;;;;7.35;3.65;;;22.80;76.50;;;;;;5037360;28;20093;-54
2023/07/18 09:46:50;;;;;;;5.63;3.42;;;22.70;76.10;;;;;;5036252;22;20442;-55
2023/07/18 09:49:37;;;;;;;5.95;3.97;;;22.60;77.20;;;;;;4994253;28;20081;-55
2023/07/18 09:52:26;;;;;;;6.38;3.60;;;22.50;77.00;;;;;;4993430;28;20499;-54
2023/07/18 09:55:14;;;;;;;10.10;3.55;;;22.70;75.60;;;;;;4992479;28;20030;-52
2023/07/18 09:58:00;;;;;;;7.40;4.10;;;22.90;75.00;;;;;;4991649;28;20026;-51
2023/07/18 10:00:47;;;;;;;5.22;3.47;;;22.70;75.80;;;;;;4993653;28;20376;-54
2023/07/18 10:03:33;;;;;;;7.43;3.78;;;22.50;75.40;;;;;;5004732;28;20121;-52
2023/07/18 10:06:21;;;;;;;6.35;3.50;;;22.20;76.00;;;;;;4991585;28;20097;-51
2023/07/18 10:09:07;;;;;;;6.97;3.95;;;22.50;76.10;;;;;;4993782;28;20121;-52
2023/07/18 10:12:00;;;;;;;7.93;3.97;;;22.80;75.90;;;;;;4993158;28;20041;-52
2023/07/18 10:14:51;;;;;;;5.97;3.15;;;23.00;75.40;;;;;;4992988;28;20027;-52
2023/07/18 10:17:40;;;;;;;5.30;3.50;;;23.10;75.60;;;;;;4993081;28;20427;-53
2023/07/18 10:20:33;;;;;;;3.67;3.10;;;23.30;75.00;;;;;;4992414;28;20436;-54
2023/07/18 10:23:37;;;;;;;4.40;3.28;;;23.50;74.30;;;;;;4992370;28;20053;-52
2023/07/18 10:26:33;;;;;;;6.30;3.47;;;23.60;73.10;;;;;;4992883;28;20030;-54
2023/07/18 10:29:19;;;;;;;6.93;3.83;;;23.70;73.10;;;;;;5003839;28;20034;-50
2023/07/18 10:32:12;;;;;;;5.88;3.35;;;23.80;72.40;;;;;;4991589;28;20062;-51
2023/07/18 10:35:00;;;;;;;7.95;3.58;;;23.90;70.80;;;;;;4992280;28;20026;-50
2023/07/18 10:37:53;;;;;;;4.63;3.65;;;23.90;70.40;;;;;;5005460;28;20334;-53
2023/07/18 10:40:42;;;;;;;5.03;3.50;;;23.80;70.70;;;;;;4991246;28;20109;-51
2023/07/18 10:43:31;;;;;;;4.43;3.42;;;23.70;71.70;;;;;;4992630;28;20103;-53
2023/07/18 10:46:19;;;;;;;5.80;3.70;;;23.60;71.60;;;;;;4992821;28;20414;-53
2023/07/18 10:49:06;;;;;;;7.10;3.83;;;23.80;71.80;;;;;;4993409;28;20093;-53
2023/07/18 10:51:55;;;;;;;4.60;2.92;;;23.60;71.30;;;;;;4992201;28;20034;-51
2023/07/18 10:54:50;;;;;;;6.63;3.88;;;23.60;70.60;;;;;;4993131;28;20499;-52
2023/07/18 10:57:38;;;;;;;8.48;3.97;;;23.90;69.90;;;;;;4993202;28;20032;-51
2023/07/18 11:00:24;;;;;;;8.00;3.83;;;23.80;69.20;;;;;;4991088;28;20037;-48
2023/07/18 11:03:26;;;;;;;4.60;3.40;;;23.80;69.10;;;;;;4992786;28;20467;-55
2023/07/18 11:06:16;;;;;;;5.07;3.10;;;24.10;70.30;;;;;;4993346;28;20099;-55
2023/07/18 11:09:04;;;;;;;5.45;3.38;;;24.10;68.20;;;;;;4993408;28;20037;-51
2023/07/18 11:11:50;;;;;;;6.55;3.42;;;24.20;68.70;;;;;;4996224;28;20038;-55
2023/07/18 11:14:42;;;;;;;4.43;3.17;;;24.20;67.60;;;;;;4995839;28;20034;-52
2023/07/18 11:17:28;;;;;;;5.40;3.33;;;24.10;67.30;;;;;;4996545;28;20033;-54
2023/07/18 11:20:14;;;;;;;4.25;3.13;;;24.10;67.60;;;;;;4996872;28;20027;-52
2023/07/18 11:23:00;;;;;;;4.22;3.22;;;24.40;67.60;;;;;;4995741;28;20034;-51
2023/07/18 11:25:46;;;;;;;5.90;3.50;;;24.40;67.70;;;;;;5007196;28;20030;-52
2023/07/18 11:28:33;;;;;;;4.63;3.08;;;24.40;68.00;;;;;;4995528;28;20034;-49
2023/07/18 11:31:27;;;;;;;6.35;3.17;;;24.50;67.60;;;;;;4996622;28;20026;-51
2023/07/18 11:34:22;;;;;;;9.25;3.78;;;24.60;66.70;;;;;;4996432;28;20030;-51
2023/07/18 11:37:08;;;;;;;6.88;2.90;;;24.80;66.30;;;;;;4994383;28;20036;-52
2023/07/18 11:39:57;;;;;;;3.70;2.70;;;24.80;65.60;;;;;;4996680;28;20037;-50
2023/07/18 11:42:51;;;;;;;4.60;2.78;;;24.80;64.10;;;;;;4995630;28;20109;-55
2023/07/18 11:45:37;;;;;;;4.07;2.97;;;24.80;63.80;;;;;;4995504;28;20019;-53
2023/07/18 11:48:25;;;;;;;4.32;3.20;;;24.80;64.40;;;;;;4995431;28;20038;-49
2023/07/18 11:51:11;;;;;;;5.28;3.00;;;25.00;64.90;;;;;;4996520;28;20034;-53
2023/07/18 11:53:57;;;;;;;5.47;3.10;;;24.80;65.10;;;;;;5006969;28;20058;-52
2023/07/18 11:56:43;;;;;;;7.15;3.40;;;25.00;65.30;;;;;;4994213;28;20022;-54
2023/07/18 11:59:28;;;;;;;4.20;3.40;;;25.10;64.20;;;;;;4995535;28;20038;-51
2023/07/18 12:02:14;;;;;;;7.15;3.25;;;25.10;64.30;;;;;;4996514;28;20026;-52
2023/07/18 12:05:00;;;;;;;10.50;3.65;;;25.00;65.20;;;;;;4996342;28;20022;-51
2023/07/18 12:07:46;;;;;;;6.30;3.72;;;24.70;63.00;;;;;;4995792;28;20422;-53
2023/07/18 12:10:33;;;;;;;4.93;2.60;;;24.80;62.40;;;;;;4995999;28;20037;-54
2023/07/18 12:13:19;;;;;;;21.63;4.43;;;24.90;61.70;;;;;;4993927;28;20023;-54
2023/07/18 12:16:05;;;;;;;9.02;3.13;;;25.00;61.50;;;;;;4994464;28;20031;-51
2023/07/18 12:18:51;;;;;;;6.75;3.30;;;25.00;60.90;;;;;;4995966;28;20026;-51
2023/07/18 12:21:37;;;;;;;5.32;3.47;;;25.00;64.40;;;;;;4994094;28;20788;-51
2023/07/18 12:24:23;;;;;;;5.82;3.30;;;25.10;64.80;;;;;;4993540;28;20113;-53
2023/07/18 12:27:09;;;;;;;4.70;3.15;;;25.10;64.90;;;;;;4995397;28;20105;-55
2023/07/18 12:29:55;;;;;;;5.63;3.40;;;25.30;64.60;;;;;;4994959;28;20023;-57
2023/07/18 12:32:41;;;;;;;3.67;2.83;;;25.40;63.90;;;;;;4995616;28;20038;-55
2023/07/18 12:35:28;;;;;;;3.63;2.78;;;25.40;63.00;;;;;;4993622;28;20069;-53
2023/07/18 12:38:14;;;;;;;4.25;3.15;;;25.40;63.00;;;;;;4995299;28;20029;-54
2023/07/18 12:41:00;;;;;;;3.20;2.80;;;25.30;62.70;;;;;;4995123;28;20030;-51
2023/07/18 12:43:46;;;;;;;6.22;3.13;;;25.20;63.50;;;;;;4993166;28;20026;-54
2023/07/18 12:46:33;;;;;;;6.63;2.95;;;25.40;62.90;;;;;;4994081;28;20034;-52
2023/07/18 12:49:19;;;;;;;6.35;3.33;;;25.60;63.30;;;;;;4994579;28;20034;-49
2023/07/18 12:52:06;;;;;;;7.15;3.22;;;25.60;63.20;;;;;;4995087;28;20022;-53
2023/07/18 12:54:52;;;;;;;3.53;2.90;;;25.40;62.50;;;;;;4993666;28;20026;-53
2023/07/18 12:57:38;;;;;;;5.50;3.17;;;25.30;63.10;;;;;;4993743;28;20521;-53
2023/07/18 13:00:24;;;;;;;4.68;3.17;;;25.30;62.80;;;;;;4993515;28;20026;-53
2023/07/18 13:03:11;;;;;;;4.25;2.92;;;25.00;62.20;;;;;;4995183;28;20035;-53
2023/07/18 13:05:57;;;;;;;5.72;3.38;;;25.00;62.90;;;;;;5005742;28;20030;-50
2023/07/18 13:08:43;;;;;;;3.83;3.00;;;24.90;63.90;;;;;;4993499;28;20455;-50
2023/07/18 13:11:30;;;;;;;4.68;3.30;;;25.10;63.10;;;;;;4993604;28;20114;-53
2023/07/18 13:14:19;;;;;;;6.20;3.33;;;25.20;63.10;;;;;;4993817;28;20027;-50
2023/07/18 13:17:05;;;;;;;3.58;2.95;;;25.40;62.50;;;;;;4994486;28;20439;-52
2023/07/18 13:19:53;;;;;;;5.93;3.20;;;25.70;62.10;;;;;;4994235;28;20384;-54
2023/07/18 13:22:39;;;;;;;5.05;3.42;;;25.90;62.10;;;;;;4992302;28;20022;-52
2023/07/18 13:25:25;;;;;;;5.90;2.95;;;25.80;61.80;;;;;;4992571;28;20038;-55
2023/07/18 13:28:11;;;;;;;4.55;3.05;;;25.80;61.70;;;;;;4994455;28;20121;-55
2023/07/18 13:30:57;;;;;;;4.50;3.30;;;25.80;61.50;;;;;;4994676;28;20499;-52
2023/07/18 13:33:43;;;;;;;3.90;3.00;;;25.70;61.50;;;;;;4992413;28;20505;-56
2023/07/18 13:36:30;;;;;;;3.60;2.92;;;25.60;61.60;;;;;;4994197;28;20033;-52
2023/07/18 13:39:16;;;;;;;3.00;2.70;;;25.20;62.30;;;;;;4994369;28;20101;-53
2023/07/18 13:42:02;;;;;;;4.60;3.13;;;25.20;62.40;;;;;;4992729;28;20022;-55
2023/07/18 13:44:50;;;;;;;5.70;3.20;;;25.20;63.10;;;;;;4993578;28;20026;-49
2023/07/18 13:47:36;;;;;;;3.83;2.88;;;25.00;64.00;;;;;;4994047;28;20407;-50
2023/07/18 13:50:22;;;;;;;6.88;3.15;;;25.20;63.20;;;;;;4992858;28;20030;-50
2023/07/18 13:53:09;;;;;;;4.10;3.10;;;25.50;63.20;;;;;;4994787;28;20563;-54
2023/07/18 13:55:55;;;;;;;4.60;2.83;;;25.80;63.00;;;;;;4993931;28;20031;-53
2023/07/18 13:58:41;;;;;;;3.65;2.83;;;25.90;61.90;;;;;;4994440;28;20026;-54
2023/07/18 14:01:27;;;;;;;6.57;3.40;;;26.20;62.70;;;;;;5005765;28;20046;-54
2023/07/18 14:04:13;;;;;;;4.05;3.10;;;26.00;61.90;;;;;;4996224;28;20041;-54
2023/07/18 14:07:00;;;;;;;5.05;3.30;;;26.40;62.00;;;;;;4993268;28;20034;-55
2023/07/18 14:09:46;;;;;;;4.28;2.97;;;26.90;61.90;;;;;;4991522;28;20041;-56
2023/07/18 14:12:32;;;;;;;4.22;3.03;;;27.30;62.00;;;;;;4993797;28;20122;-52
2023/07/18 14:15:18;;;;;;;5.25;3.53;;;27.20;59.70;;;;;;4993839;28;20034;-53
2023/07/18 14:18:04;;;;;;;4.22;2.80;;;27.30;60.10;;;;;;4993843;28;20029;-50
2023/07/18 14:20:49;;;;;;;3.95;3.05;;;27.80;59.30;;;;;;4993914;28;20035;-55
2023/07/18 14:23:35;;;;;;;4.32;2.85;;;27.50;59.40;;;;;;4993074;28;20088;-53
2023/07/18 14:26:22;;;;;;;5.32;2.90;;;27.60;59.60;;;;;;4991061;28;20383;-52